createdAt,value
2019-03-26T00:01:46.835Z,17.90
2019-03-26T00:04:27.619Z,16.13
2019-03-26T00:09:51.550Z,17.00
2019-03-26T00:12:32.547Z,17.33
2019-03-26T00:15:13.104Z,17.00
2019-03-26T00:17:54.255Z,18.07
2019-03-26T00:20:34.956Z,20.70
2019-03-26T00:23:16.030Z,17.97
2019-03-26T00:25:56.485Z,20.77
2019-03-26T00:28:37.635Z,18.47
2019-03-26T00:31:18.135Z,20.67
2019-03-26T00:33:58.827Z,23.47
2019-03-26T00:36:39.586Z,22.67
2019-03-26T00:39:20.472Z,22.77
2019-03-26T00:42:01.066Z,22.20
2019-03-26T00:44:42.175Z,25.87
2019-03-26T00:47:23.719Z,22.43
2019-03-26T00:50:04.347Z,25.10
2019-03-26T00:52:44.951Z,25.13
2019-03-26T00:55:25.794Z,23.17
2019-03-26T00:58:06.890Z,23.47
2019-03-26T01:00:47.794Z,22.13
2019-03-26T01:03:29.071Z,24.40
2019-03-26T01:06:10.750Z,25.20
2019-03-26T01:08:51.658Z,23.67
2019-03-26T01:11:32.408Z,21.60
2019-03-26T01:14:13.090Z,21.03
2019-03-26T01:16:53.805Z,21.97
2019-03-26T01:19:34.570Z,21.30
2019-03-26T01:22:15.196Z,21.43
2019-03-26T01:24:55.615Z,23.10
2019-03-26T01:27:36.266Z,22.10
2019-03-26T01:30:16.853Z,21.80
2019-03-26T01:32:57.349Z,23.40
2019-03-26T01:35:38.239Z,21.87
2019-03-26T01:38:18.720Z,23.23
2019-03-26T01:40:59.306Z,23.03
2019-03-26T01:43:40.084Z,22.10
2019-03-26T01:46:20.762Z,24.43
2019-03-26T01:49:01.652Z,25.20
2019-03-26T01:51:42.612Z,22.70
2019-03-26T01:54:23.031Z,24.10
2019-03-26T01:57:03.674Z,21.50
2019-03-26T01:59:44.247Z,21.63
2019-03-26T02:02:25.406Z,20.13
2019-03-26T02:05:05.702Z,23.07
2019-03-26T02:07:46.250Z,20.43
2019-03-26T02:10:26.907Z,20.80
2019-03-26T02:13:07.850Z,20.33
2019-03-26T02:15:48.285Z,18.73
2019-03-26T02:21:12.041Z,21.00
2019-03-26T02:26:37.697Z,20.07
2019-03-26T02:29:18.375Z,19.57
2019-03-26T02:31:59.047Z,18.80
2019-03-26T02:34:39.755Z,21.90
2019-03-26T02:37:20.204Z,18.90
2019-03-26T02:40:01.096Z,17.67
2019-03-26T02:42:42.370Z,17.30
2019-03-26T02:45:22.770Z,15.43
2019-03-26T02:48:03.709Z,18.03
2019-03-26T02:50:45.192Z,16.30
2019-03-26T02:53:26.418Z,19.00
2019-03-26T02:56:07.275Z,18.00
2019-03-26T02:58:47.624Z,17.00
2019-03-26T03:01:28.467Z,18.67
2019-03-26T03:04:09.625Z,17.90
2019-03-26T03:06:50.441Z,17.60
2019-03-26T03:09:31.093Z,20.10
2019-03-26T03:12:11.930Z,18.70
2019-03-26T03:14:52.496Z,17.07
2019-03-26T03:17:33.326Z,18.67
2019-03-26T03:20:13.835Z,18.70
2019-03-26T03:22:54.596Z,19.87
2019-03-26T03:25:35.690Z,18.10
2019-03-26T03:28:16.457Z,19.43
2019-03-26T03:30:57.106Z,20.97
2019-03-26T03:33:37.847Z,21.37
2019-03-26T03:36:18.492Z,21.77
2019-03-26T03:41:44.061Z,22.23
2019-03-26T03:44:24.658Z,23.60
2019-03-26T03:47:05.196Z,26.50
2019-03-26T03:49:45.817Z,27.47
2019-03-26T03:52:26.404Z,25.37
2019-03-26T03:55:07.106Z,27.20
2019-03-26T03:57:47.778Z,27.37
2019-03-26T04:00:28.618Z,27.80
2019-03-26T04:03:09.035Z,26.40
2019-03-26T04:05:49.671Z,21.67
2019-03-26T04:11:13.157Z,20.23
2019-03-26T04:13:53.620Z,15.93
2019-03-26T04:16:34.564Z,15.60
2019-03-26T04:19:15.408Z,13.90
2019-03-26T04:21:55.958Z,12.27
2019-03-26T04:24:36.342Z,10.40
2019-03-26T04:27:17.129Z,10.60
2019-03-26T04:29:57.630Z,9.77
2019-03-26T04:32:38.686Z,10.50
2019-03-26T04:35:19.234Z,8.67
2019-03-26T04:37:59.721Z,8.60
2019-03-26T04:40:40.475Z,7.90
2019-03-26T04:43:21.225Z,8.67
2019-03-26T04:46:01.810Z,8.07
2019-03-26T04:48:42.759Z,7.43
2019-03-26T04:51:23.533Z,9.47
2019-03-26T04:54:04.565Z,8.70
2019-03-26T04:56:45.337Z,7.67
2019-03-26T04:59:26.714Z,8.40
2019-03-26T05:02:07.560Z,7.47
2019-03-26T05:04:48.135Z,6.40
2019-03-26T05:07:29.127Z,9.10
2019-03-26T05:10:09.595Z,7.27
2019-03-26T05:12:50.654Z,6.30
2019-03-26T05:15:30.986Z,3.60
2019-03-26T05:18:14.375Z,4.93
2019-03-26T05:20:55.526Z,2.70
2019-03-26T05:23:35.923Z,4.23
2019-03-26T05:26:16.880Z,3.50
2019-03-26T05:28:57.431Z,3.20
2019-03-26T05:31:38.303Z,3.20
2019-03-26T05:34:19.390Z,3.47
2019-03-26T05:37:00.264Z,4.20
2019-03-26T05:39:40.617Z,5.90
2019-03-26T05:42:21.371Z,4.50
2019-03-26T05:45:01.968Z,4.60
2019-03-26T05:47:42.679Z,4.40
2019-03-26T05:53:06.755Z,4.60
2019-03-26T05:55:47.443Z,4.47
2019-03-26T05:58:28.082Z,3.63
2019-03-26T06:01:09.298Z,3.90
2019-03-26T06:03:49.926Z,4.40
2019-03-26T06:06:30.499Z,4.53
2019-03-26T06:09:11.214Z,4.27
2019-03-26T06:11:51.910Z,3.80
2019-03-26T06:17:17.610Z,4.40
2019-03-26T06:22:41.585Z,3.83
2019-03-26T06:25:22.180Z,4.37
2019-03-26T06:28:02.770Z,4.60
2019-03-26T06:30:43.485Z,4.70
2019-03-26T06:33:24.053Z,4.30
2019-03-26T06:38:49.062Z,5.00
2019-03-26T06:41:29.671Z,4.90
2019-03-26T06:44:10.370Z,6.17
2019-03-26T06:46:51.379Z,4.80
2019-03-26T06:49:32.342Z,5.20
2019-03-26T06:52:12.968Z,4.47
2019-03-26T06:54:53.851Z,3.73
2019-03-26T06:57:36.089Z,6.03
2019-03-26T07:00:16.787Z,4.20
2019-03-26T07:02:58.056Z,4.70
2019-03-26T07:05:38.986Z,3.60
2019-03-26T07:08:20.101Z,4.33
2019-03-26T07:11:00.911Z,4.53
2019-03-26T07:13:41.601Z,4.80
2019-03-26T07:19:09.562Z,3.53
2019-03-26T07:21:50.588Z,3.70
2019-03-26T07:24:31.426Z,4.27
2019-03-26T07:27:12.219Z,4.10
2019-03-26T07:29:53.198Z,4.10
2019-03-26T07:32:34.075Z,3.63
2019-03-26T07:35:14.823Z,3.20
2019-03-26T07:37:55.628Z,3.93
2019-03-26T07:40:36.706Z,2.90
2019-03-26T07:43:18.036Z,3.80
2019-03-26T07:45:58.837Z,3.60
2019-03-26T07:48:39.717Z,4.33
2019-03-26T07:51:20.213Z,3.70
2019-03-26T07:54:00.708Z,5.23
2019-03-26T07:56:41.211Z,3.27
2019-03-26T07:59:21.864Z,4.43
2019-03-26T08:02:03.492Z,3.97
2019-03-26T08:04:44.196Z,4.67
2019-03-26T08:07:25.501Z,2.40
2019-03-26T08:10:05.951Z,4.23
2019-03-26T08:12:46.726Z,2.30
2019-03-26T08:15:27.303Z,3.70
2019-03-26T08:18:07.729Z,2.67
2019-03-26T08:20:48.670Z,3.47
2019-03-26T08:23:30.118Z,3.50
2019-03-26T08:26:11.365Z,3.20
2019-03-26T08:28:51.977Z,3.23
2019-03-26T08:34:15.780Z,3.17
2019-03-26T08:36:56.742Z,3.50
2019-03-26T08:39:37.617Z,3.73
2019-03-26T08:42:18.544Z,2.73
2019-03-26T08:44:59.073Z,3.37
2019-03-26T08:47:39.799Z,3.10
2019-03-26T08:50:20.702Z,2.97
2019-03-26T08:53:01.434Z,4.10
2019-03-26T08:55:42.638Z,3.73
2019-03-26T09:01:06.111Z,3.00
2019-03-26T09:03:46.637Z,2.80
2019-03-26T09:06:27.451Z,2.77
2019-03-26T09:09:08.367Z,3.03
2019-03-26T09:11:48.939Z,3.40
2019-03-26T09:14:29.608Z,3.83
2019-03-26T09:17:10.304Z,3.67
2019-03-26T09:19:51.185Z,4.17
2019-03-26T09:22:32.122Z,4.40
2019-03-26T09:25:12.511Z,3.70
2019-03-26T09:30:33.033Z,6.20
2019-03-26T09:33:14.007Z,2.50
2019-03-26T09:35:54.917Z,3.00
2019-03-26T09:38:39.113Z,2.90
2019-03-26T09:41:18.500Z,2.73
2019-03-26T09:43:59.307Z,3.00
2019-03-26T09:46:40.003Z,3.17
2019-03-26T09:49:21.127Z,2.70
2019-03-26T09:52:01.864Z,3.07
2019-03-26T09:57:28.677Z,2.80
2019-03-26T10:00:09.663Z,2.00
2019-03-26T10:02:50.834Z,3.00
2019-03-26T10:05:31.173Z,3.50
2019-03-26T10:08:11.788Z,2.80
2019-03-26T10:10:52.451Z,3.30
2019-03-26T10:13:32.897Z,4.13
2019-03-26T10:16:15.132Z,2.80
2019-03-26T10:21:38.595Z,3.00
2019-03-26T10:24:19.948Z,3.07
2019-03-26T10:27:00.685Z,2.80
2019-03-26T10:29:41.544Z,3.07
2019-03-26T10:32:22.537Z,2.67
2019-03-26T10:35:03.333Z,2.27
2019-03-26T10:37:43.788Z,2.60
2019-03-26T10:40:24.312Z,2.37
2019-03-26T10:43:05.052Z,2.40
2019-03-26T10:45:45.774Z,2.70
2019-03-26T10:48:26.945Z,2.63
2019-03-26T10:51:07.579Z,3.10
2019-03-26T10:53:48.030Z,2.83
2019-03-26T10:56:28.708Z,2.83
2019-03-26T11:01:52.358Z,2.30
2019-03-26T11:04:33.197Z,3.30
2019-03-26T11:07:13.862Z,3.00
2019-03-26T11:09:54.931Z,2.87
2019-03-26T11:12:35.803Z,3.37
2019-03-26T11:15:16.498Z,2.73
2019-03-26T11:17:56.886Z,2.80
2019-03-26T11:23:20.381Z,3.50
2019-03-26T11:26:01.698Z,3.00
2019-03-26T11:28:42.049Z,3.43
2019-03-26T11:31:22.658Z,3.70
2019-03-26T11:34:03.334Z,3.10
2019-03-26T11:36:43.791Z,3.80
2019-03-26T11:39:32.695Z,3.10
2019-03-26T11:44:49.746Z,3.40
2019-03-26T11:47:30.173Z,2.90
2019-03-26T11:50:10.905Z,3.00
2019-03-26T11:52:51.782Z,3.37
2019-03-26T11:55:32.233Z,3.37
2019-03-26T11:58:13.073Z,2.97
2019-03-26T12:00:54.051Z,3.50
2019-03-26T12:03:34.668Z,2.73
2019-03-26T12:06:15.130Z,2.87
2019-03-26T12:08:55.758Z,2.87
2019-03-26T12:11:36.546Z,3.37
2019-03-26T12:14:17.193Z,3.90
2019-03-26T12:16:57.890Z,3.20
2019-03-26T12:19:38.522Z,3.23
2019-03-26T12:22:19.206Z,3.30
2019-03-26T12:24:59.976Z,3.53
2019-03-26T12:27:40.954Z,4.00
2019-03-26T12:30:21.555Z,3.30
2019-03-26T12:33:02.129Z,3.10
2019-03-26T12:38:28.135Z,2.73
2019-03-26T12:41:08.735Z,3.47
2019-03-26T12:43:49.282Z,3.27
2019-03-26T12:46:29.895Z,3.40
2019-03-26T12:49:10.695Z,3.40
2019-03-26T12:51:51.223Z,3.33
2019-03-26T12:54:31.985Z,2.90
2019-03-26T12:57:14.026Z,3.47
2019-03-26T12:59:54.815Z,3.07
2019-03-26T13:02:36.011Z,2.60
2019-03-26T13:05:17.243Z,3.23
2019-03-26T13:10:52.718Z,2.57
2019-03-26T13:13:23.162Z,2.50
2019-03-26T13:16:04.032Z,3.23
2019-03-26T13:18:44.696Z,4.47
2019-03-26T13:21:25.892Z,2.73
2019-03-26T13:24:06.674Z,3.23
2019-03-26T13:26:49.005Z,3.40
2019-03-26T13:29:30.359Z,4.10
2019-03-26T13:32:12.975Z,3.67
2019-03-26T13:34:53.679Z,3.60
2019-03-26T13:40:27.185Z,4.43
2019-03-26T13:42:59.809Z,3.40
2019-03-26T13:45:40.819Z,3.33
2019-03-26T13:48:21.906Z,3.70
2019-03-26T13:51:02.695Z,3.17
2019-03-26T13:53:43.480Z,2.70
2019-03-26T13:56:24.299Z,3.57
2019-03-26T13:59:04.826Z,3.40
2019-03-26T14:01:45.466Z,3.00
2019-03-26T14:04:26.185Z,4.27
2019-03-26T14:07:06.877Z,4.13
2019-03-26T14:09:47.801Z,4.40
2019-03-26T14:12:28.142Z,3.97
2019-03-26T14:15:09.141Z,3.50
2019-03-26T14:17:50.696Z,4.33
2019-03-26T14:20:31.165Z,4.50
2019-03-26T14:23:11.706Z,3.77
2019-03-26T14:25:52.491Z,3.00
2019-03-26T14:28:33.147Z,3.37
2019-03-26T14:31:13.848Z,3.50
2019-03-26T14:33:54.767Z,4.23
2019-03-26T14:36:35.275Z,3.17
2019-03-26T14:39:16.378Z,3.60
2019-03-26T14:41:57.453Z,3.00
2019-03-26T14:44:38.343Z,3.27
2019-03-26T14:47:18.966Z,2.97
2019-03-26T14:50:00.363Z,3.43
2019-03-26T14:52:41.449Z,2.90
2019-03-26T14:55:22.586Z,3.60
2019-03-26T14:58:03.403Z,3.10
2019-03-26T15:00:44.300Z,3.77
2019-03-26T15:03:24.992Z,3.60
2019-03-26T15:06:05.782Z,4.37
2019-03-26T15:08:46.757Z,3.90
2019-03-26T15:11:27.579Z,4.23
2019-03-26T15:14:08.209Z,4.70
2019-03-26T15:16:49.021Z,4.17
2019-03-26T15:22:11.914Z,3.47
2019-03-26T15:24:52.444Z,4.07
2019-03-26T15:27:32.773Z,4.23
2019-03-26T15:30:13.530Z,5.17
2019-03-26T15:32:54.631Z,3.63
2019-03-26T15:35:35.348Z,4.00
2019-03-26T15:38:16.063Z,4.53
2019-03-26T15:40:56.587Z,4.60
2019-03-26T15:43:37.371Z,3.83
2019-03-26T15:46:18.074Z,3.20
2019-03-26T15:51:43.803Z,3.10
2019-03-26T15:54:24.432Z,2.30
2019-03-26T15:57:05.098Z,3.90
2019-03-26T15:59:46.091Z,3.17
2019-03-26T16:02:26.559Z,3.53
2019-03-26T16:05:07.423Z,3.30
2019-03-26T16:07:48.745Z,3.00
2019-03-26T16:10:29.554Z,3.70
2019-03-26T16:13:10.523Z,4.57
2019-03-26T16:15:52.016Z,3.30
2019-03-26T16:18:32.581Z,3.60
2019-03-26T16:21:13.066Z,3.80
2019-03-26T16:23:53.749Z,3.30
2019-03-26T16:26:34.597Z,4.00
2019-03-26T16:29:15.815Z,4.90
2019-03-26T16:31:56.739Z,3.97
2019-03-26T16:34:37.656Z,4.33
2019-03-26T16:37:18.482Z,3.80
2019-03-26T16:39:59.230Z,4.03
2019-03-26T16:42:40.031Z,3.17
2019-03-26T16:45:21.469Z,4.03
2019-03-26T16:48:01.743Z,4.30
2019-03-26T16:50:42.709Z,4.40
2019-03-26T16:56:06.595Z,4.37
2019-03-26T17:01:30.530Z,4.33
2019-03-26T17:04:11.409Z,4.90
2019-03-26T17:06:52.071Z,5.83
2019-03-26T17:09:33.238Z,4.80
2019-03-26T17:12:14.142Z,4.03
2019-03-26T17:14:54.950Z,4.90
2019-03-26T17:17:35.380Z,4.90
2019-03-26T17:20:16.091Z,3.90
2019-03-26T17:22:56.882Z,4.80
2019-03-26T17:25:38.059Z,4.67
2019-03-26T17:28:18.846Z,4.90
2019-03-26T17:31:00.136Z,3.47
2019-03-26T17:33:40.823Z,4.30
2019-03-26T17:36:21.543Z,3.37
2019-03-26T17:39:02.113Z,4.90
2019-03-26T17:41:43.099Z,4.40
2019-03-26T17:44:23.794Z,3.87
2019-03-26T17:47:04.523Z,4.87
2019-03-26T17:49:45.307Z,3.90
2019-03-26T17:52:26.099Z,4.50
2019-03-26T17:55:07.110Z,4.70
2019-03-26T17:57:48.160Z,4.43
2019-03-26T18:00:29.211Z,4.83
2019-03-26T18:03:10.030Z,4.40
2019-03-26T18:05:51.165Z,4.43
2019-03-26T18:08:31.775Z,4.87
2019-03-26T18:11:12.679Z,4.60
2019-03-26T18:13:53.210Z,4.00
2019-03-26T18:16:33.601Z,5.17
2019-03-26T18:19:14.179Z,5.07
2019-03-26T18:21:54.978Z,6.00
2019-03-26T18:27:18.556Z,5.90
2019-03-26T18:29:59.385Z,6.10
2019-03-26T18:32:40.082Z,6.67
2019-03-26T18:35:20.871Z,6.90
2019-03-26T18:38:01.755Z,6.10
2019-03-26T18:40:42.494Z,6.00
2019-03-26T18:43:23.355Z,6.23
2019-03-26T18:46:04.067Z,6.23
2019-03-26T18:48:45.148Z,7.30
2019-03-26T18:51:25.931Z,7.00
2019-03-26T18:54:06.576Z,6.70
2019-03-26T18:56:46.955Z,6.63
2019-03-26T18:59:27.514Z,6.30
2019-03-26T19:02:08.124Z,5.73
2019-03-26T19:04:48.601Z,7.60
2019-03-26T19:07:29.622Z,7.23
2019-03-26T19:10:10.060Z,7.67
2019-03-26T19:12:56.648Z,5.17
2019-03-26T19:15:33.836Z,5.17
2019-03-26T19:18:14.297Z,4.87
2019-03-26T19:21:01.914Z,4.40
2019-03-26T19:23:37.959Z,4.23
2019-03-26T19:26:18.778Z,4.07
2019-03-26T19:28:59.639Z,4.87
2019-03-26T19:31:40.278Z,5.10
2019-03-26T19:34:09.857Z,4.80
2019-03-26T19:36:58.215Z,5.00
2019-03-26T19:39:46.539Z,6.00
2019-03-26T19:42:34.824Z,5.87
2019-03-26T19:45:23.084Z,5.70
2019-03-26T19:51:04.959Z,4.97
2019-03-26T19:53:45.623Z,4.73
2019-03-26T19:56:26.599Z,3.90
2019-03-26T19:59:07.311Z,4.90
2019-03-26T20:01:48.201Z,4.80
2019-03-26T20:04:28.939Z,5.97
2019-03-26T20:09:52.364Z,6.80
2019-03-26T20:12:33.159Z,6.53
2019-03-26T20:15:13.923Z,6.10
2019-03-26T20:17:54.573Z,6.30
2019-03-26T20:20:35.139Z,6.23
2019-03-26T20:23:15.880Z,5.73
2019-03-26T20:25:56.667Z,5.70
2019-03-26T20:28:37.615Z,5.77
2019-03-26T20:31:18.206Z,6.23
2019-03-26T20:33:59.738Z,7.63
2019-03-26T20:36:41.044Z,6.30
2019-03-26T20:39:21.529Z,6.17
2019-03-26T20:44:45.618Z,5.93
2019-03-26T20:47:26.507Z,6.00
2019-03-26T20:50:07.227Z,6.13
2019-03-26T20:52:47.755Z,5.73
2019-03-26T20:55:28.416Z,6.10
2019-03-26T20:58:09.186Z,6.67
2019-03-26T21:00:50.052Z,6.93
2019-03-26T21:03:31.095Z,5.90
2019-03-26T21:06:11.793Z,5.73
2019-03-26T21:08:52.686Z,5.43
2019-03-26T21:11:33.238Z,6.27
2019-03-26T21:14:02.604Z,6.20
2019-03-26T21:16:50.927Z,6.53
2019-03-26T21:19:39.204Z,5.60
2019-03-26T21:22:27.463Z,6.00
2019-03-26T21:25:15.827Z,6.60
2019-03-26T21:28:04.322Z,6.43
2019-03-26T21:30:52.912Z,7.47
2019-03-26T21:33:41.171Z,6.37
2019-03-26T21:36:29.699Z,6.70
2019-03-26T21:39:17.971Z,6.97
2019-03-26T21:42:06.226Z,7.80
2019-03-26T21:44:54.518Z,8.50
2019-03-26T21:47:42.774Z,7.27
2019-03-26T21:50:31.048Z,8.40
2019-03-26T21:53:20.100Z,9.10
2019-03-26T21:56:08.377Z,7.63
2019-03-26T21:58:37.664Z,8.90
2019-03-26T22:01:26.215Z,8.23
2019-03-26T22:04:14.539Z,9.23
2019-03-26T22:07:02.832Z,8.03
2019-03-26T22:09:51.113Z,8.70
2019-03-26T22:12:39.433Z,8.50
2019-03-26T22:15:28.052Z,8.67
2019-03-26T22:18:16.306Z,9.17
2019-03-26T22:21:04.606Z,10.53
2019-03-26T22:23:52.964Z,9.10
2019-03-26T22:26:41.243Z,10.27
2019-03-26T22:29:29.791Z,8.87
2019-03-26T22:32:18.080Z,9.70
2019-03-26T22:35:06.557Z,10.07
2019-03-26T22:37:54.884Z,10.00
2019-03-26T22:40:43.165Z,10.07
2019-03-26T22:43:31.428Z,10.47
2019-03-26T22:46:19.726Z,10.40
2019-03-26T22:49:07.988Z,9.63
2019-03-26T22:51:56.266Z,10.63
2019-03-26T22:54:37.248Z,9.50
2019-03-26T22:57:17.836Z,11.33
2019-03-26T22:59:58.778Z,9.60
2019-03-26T23:02:39.997Z,10.93
2019-03-26T23:05:21.346Z,10.90
2019-03-26T23:08:01.737Z,11.30
2019-03-26T23:10:42.410Z,10.37
2019-03-26T23:13:23.400Z,10.63
2019-03-26T23:16:03.741Z,9.17
2019-03-26T23:18:44.418Z,8.80
2019-03-26T23:21:25.042Z,11.03
2019-03-26T23:26:48.949Z,9.80
2019-03-26T23:32:12.897Z,9.20
2019-03-26T23:34:53.797Z,9.07
2019-03-26T23:37:34.704Z,11.30
2019-03-26T23:42:58.411Z,7.60
2019-03-26T23:45:39.740Z,7.43
2019-03-26T23:51:03.412Z,8.70
2019-03-26T23:53:44.001Z,8.10
2019-03-26T23:56:24.729Z,7.03
2019-03-26T23:59:05.208Z,7.57
